Time;durP1;ratioP1;P1;durP2;ratioP2;P2;SDS_P1;SDS_P2;PMS_P1;PMS_P2;Temp;Humidity;BMP_temperature;BMP_pressure;BME280_temperature;BME280_humidity;BME280_pressure;Samples;Min_cycle;Max_cycle;Signal;HPM_P1;HPM_P2
2024/05/04 00:00:19;;;;;;;2.90;1.10;;;21.20;61.20;;;;;;6637531;43;110403;-73
2024/05/04 00:05:24;;;;;;;4.07;1.10;;;21.20;61.30;;;;;;6645938;43;112338;-70
2024/05/04 00:10:32;;;;;;;4.30;1.00;;;21.20;61.30;;;;;;6640627;43;111618;-70
2024/05/04 00:15:37;;;;;;;2.72;0.90;;;21.20;61.20;;;;;;6638346;43;110705;-70
2024/05/04 00:20:43;;;;;;;3.15;1.00;;;21.20;61.30;;;;;;6637724;43;111305;-73
2024/05/04 00:25:51;;;;;;;3.38;1.00;;;21.10;61.10;;;;;;6615331;43;110340;-74
2024/05/04 00:30:56;;;;;;;2.92;1.10;;;21.20;61.20;;;;;;6640520;43;110557;-71
2024/05/04 00:36:01;;;;;;;2.55;0.93;;;21.10;61.20;;;;;;6638330;43;114403;-70
2024/05/04 00:41:09;;;;;;;2.40;0.90;;;21.10;61.20;;;;;;6640957;43;114002;-72
2024/05/04 00:46:16;;;;;;;3.22;1.08;;;21.10;61.30;;;;;;6638644;43;114981;-73
2024/05/04 00:51:22;;;;;;;2.97;1.00;;;21.10;61.30;;;;;;6615633;43;115777;-79
2024/05/04 00:56:31;;;;;;;2.25;0.90;;;21.10;61.30;;;;;;6643285;43;114525;-79
2024/05/04 01:01:37;;;;;;;3.83;1.02;;;21.10;61.10;;;;;;6637692;43;114084;-80
2024/05/04 01:06:43;;;;;;;2.72;0.90;;;21.10;61.20;;;;;;6639490;43;115080;-80
2024/05/04 01:11:51;;;;;;;3.50;0.93;;;21.10;61.20;;;;;;6646528;43;116342;-77
2024/05/04 01:16:56;;;;;;;2.67;0.90;;;21.10;61.10;;;;;;6646426;43;116748;-80
2024/05/04 01:22:02;;;;;;;3.35;1.00;;;21.00;61.00;;;;;;6638047;43;110594;-76
2024/05/04 01:27:10;;;;;;;3.17;0.90;;;21.00;61.00;;;;;;6635807;43;111984;-79
2024/05/04 01:32:16;;;;;;;2.50;0.80;;;21.00;61.00;;;;;;6637516;43;110783;-75
2024/05/04 01:37:21;;;;;;;2.67;0.80;;;21.00;60.90;;;;;;6638226;43;110785;-77
2024/05/04 01:42:29;;;;;;;2.58;0.85;;;21.00;61.00;;;;;;6639451;43;111626;-80
2024/05/04 01:47:34;;;;;;;2.35;0.90;;;21.00;60.90;;;;;;6636076;43;110307;-70
2024/05/04 01:52:39;;;;;;;1.92;0.80;;;21.00;61.00;;;;;;6646259;43;112589;-78
2024/05/04 01:57:49;;;;;;;2.35;0.70;;;21.00;61.40;;;;;;6640019;43;111018;-79
2024/05/04 02:02:54;;;;;;;1.88;0.77;;;21.00;61.00;;;;;;6646255;43;112135;-71
2024/05/04 02:08:00;;;;;;;2.63;0.80;;;21.00;60.90;;;;;;6638980;43;110995;-74
2024/05/04 02:13:08;;;;;;;3.38;0.80;;;21.00;60.90;;;;;;6638974;43;110862;-72
2024/05/04 02:18:13;;;;;;;3.20;0.80;;;21.00;60.70;;;;;;6638786;43;110346;-73
2024/05/04 02:23:19;;;;;;;1.88;0.80;;;20.90;60.70;;;;;;6641836;43;110905;-73
2024/05/04 02:28:27;;;;;;;2.28;0.70;;;20.90;60.60;;;;;;6638277;43;115573;-73
2024/05/04 02:33:33;;;;;;;3.10;0.90;;;20.90;60.80;;;;;;6639561;43;114645;-77
2024/05/04 02:38:38;;;;;;;3.03;0.80;;;20.90;60.90;;;;;;6637838;43;114300;-73
2024/05/04 02:43:46;;;;;;;2.72;0.70;;;20.90;60.60;;;;;;6650621;43;116538;-72
2024/05/04 02:48:51;;;;;;;2.58;0.75;;;20.90;60.60;;;;;;6646685;43;115877;-70
2024/05/04 02:53:57;;;;;;;2.88;0.70;;;20.90;60.60;;;;;;6639234;43;114131;-74
2024/05/04 02:59:05;;;;;;;4.40;0.77;;;20.90;60.60;;;;;;6638128;43;115311;-75
2024/05/04 03:04:11;;;;;;;2.45;0.70;;;20.90;60.70;;;;;;6642445;43;115352;-72
2024/05/04 03:09:16;;;;;;;2.65;0.77;;;20.80;60.60;;;;;;6640591;43;110226;-72
2024/05/04 03:14:24;;;;;;;2.60;0.70;;;20.80;60.50;;;;;;6617626;43;111520;-72
2024/05/04 03:19:29;;;;;;;2.72;0.70;;;20.80;60.60;;;;;;6638769;43;110446;-71
2024/05/04 03:24:38;;;;;;;2.72;0.80;;;20.80;60.60;;;;;;6647618;43;112765;-70
2024/05/04 03:29:45;;;;;;;2.75;0.60;;;20.80;60.60;;;;;;6640199;43;110432;-71
2024/05/04 03:34:52;;;;;;;2.22;0.85;;;20.80;60.70;;;;;;6638727;43;111011;-71
2024/05/04 03:39:58;;;;;;;3.30;0.80;;;20.80;60.70;;;;;;6638629;43;110933;-72
2024/05/04 03:45:07;;;;;;;1.65;0.60;;;20.80;60.70;;;;;;6615531;43;110181;-74
2024/05/04 03:50:12;;;;;;;4.05;0.93;;;20.80;60.80;;;;;;6648862;43;113025;-72
2024/05/04 03:55:18;;;;;;;2.70;0.70;;;20.80;60.80;;;;;;6638112;43;111353;-71
2024/05/04 04:00:25;;;;;;;2.10;0.70;;;20.80;61.00;;;;;;6638548;43;110400;-71
2024/05/04 04:05:31;;;;;;;2.28;0.70;;;20.80;61.70;;;;;;6639759;43;112799;-73
2024/05/04 04:10:36;;;;;;;2.92;0.73;;;20.80;61.00;;;;;;6641272;43;110356;-77
2024/05/04 04:15:44;;;;;;;1.95;0.70;;;20.80;61.00;;;;;;6648636;43;114388;-74
2024/05/04 04:20:49;;;;;;;2.03;0.70;;;20.70;61.00;;;;;;6639889;43;115702;-81
2024/05/04 04:25:55;;;;;;;2.90;0.70;;;20.80;61.10;;;;;;6638092;43;114259;-79
2024/05/04 04:31:05;;;;;;;3.17;0.73;;;20.70;61.10;;;;;;6641077;43;115137;-77
2024/05/04 04:36:10;;;;;;;1.48;0.70;;;20.70;61.10;;;;;;6641062;43;115435;-80
2024/05/04 04:41:16;;;;;;;2.15;0.70;;;20.70;61.10;;;;;;6638766;43;114924;-76
2024/05/04 04:46:24;;;;;;;2.08;0.70;;;20.80;61.20;;;;;;6615385;43;113694;-79
2024/05/04 04:51:29;;;;;;;3.03;0.73;;;20.70;61.10;;;;;;6640409;43;115190;-77
2024/05/04 04:56:34;;;;;;;2.75;0.85;;;20.70;61.20;;;;;;6648975;43;117281;-80
2024/05/04 05:01:43;;;;;;;3.03;0.75;;;20.70;61.10;;;;;;6637768;43;110593;-81
2024/05/04 05:06:48;;;;;;;3.38;0.80;;;20.70;62.00;;;;;;6643043;43;110599;-81
2024/05/04 05:11:53;;;;;;;3.08;0.80;;;20.70;61.30;;;;;;6642462;43;111810;-80
2024/05/04 05:17:01;;;;;;;2.85;0.80;;;20.70;61.10;;;;;;6641848;43;110735;-72
2024/05/04 05:22:07;;;;;;;2.67;0.80;;;20.70;61.10;;;;;;6642046;43;110705;-74
2024/05/04 05:27:12;;;;;;;3.88;0.73;;;20.70;61.20;;;;;;6641053;43;110633;-76
2024/05/04 05:32:20;;;;;;;1.75;0.77;;;20.70;61.30;;;;;;6639980;43;111070;-80
2024/05/04 05:37:38;;;;;;;2.90;0.80;;;20.70;61.30;;;;;;6617866;43;110667;-72
2024/05/04 05:42:43;;;;;;;2.33;0.82;;;20.70;61.40;;;;;;6644145;43;111911;-80
2024/05/04 05:47:51;;;;;;;1.77;0.63;;;20.70;61.40;;;;;;6638523;43;111458;-80
2024/05/04 05:52:56;;;;;;;3.47;0.70;;;20.70;61.50;;;;;;6639028;43;110596;-72
2024/05/04 05:58:05;;;;;;;2.20;0.80;;;20.70;61.60;;;;;;6639730;43;110914;-74
2024/05/04 06:03:13;;;;;;;4.07;0.77;;;20.70;61.50;;;;;;6637873;43;114387;-70
2024/05/04 06:08:22;;;;;;;3.35;0.73;;;20.70;61.60;;;;;;6654202;43;115814;-71
2024/05/04 06:13:27;;;;;;;2.22;0.70;;;20.70;61.60;;;;;;6639861;43;113338;-72
2024/05/04 06:18:35;;;;;;;2.95;0.73;;;20.70;61.90;;;;;;6646549;43;114549;-70
2024/05/04 06:23:40;;;;;;;2.17;0.70;;;20.70;62.20;;;;;;6648289;43;115283;-70
2024/05/04 06:28:46;;;;;;;2.40;0.70;;;20.70;62.40;;;;;;6638718;43;114022;-72
2024/05/04 06:33:54;;;;;;;1.83;0.80;;;20.70;62.60;;;;;;6639124;43;115437;-74
2024/05/04 06:38:59;;;;;;;2.45;0.65;;;20.70;62.90;;;;;;6638163;43;114258;-73
2024/05/04 06:44:04;;;;;;;2.28;0.80;;;20.70;62.90;;;;;;6649632;43;116041;-71
2024/05/04 06:49:12;;;;;;;3.03;0.80;;;20.70;63.20;;;;;;6639267;43;110616;-69
2024/05/04 06:54:18;;;;;;;2.65;0.80;;;20.70;63.20;;;;;;6638023;43;111827;-74
2024/05/04 06:59:23;;;;;;;2.58;0.73;;;20.70;63.40;;;;;;6637472;43;111020;-71
2024/05/04 07:04:31;;;;;;;2.67;0.77;;;20.70;63.40;;;;;;6639778;43;110643;-73
2024/05/04 07:09:36;;;;;;;1.85;0.70;;;20.70;63.60;;;;;;6637785;43;110686;-72
2024/05/04 07:14:41;;;;;;;1.65;0.70;;;20.70;63.60;;;;;;6645369;43;112644;-71
2024/05/04 07:19:49;;;;;;;1.65;0.60;;;20.70;63.50;;;;;;6638331;43;110272;-71
2024/05/04 07:31:11;;;;;;;2.78;0.70;;;20.70;63.90;;;;;;6515246;42;110977;-70
2024/05/04 07:36:19;;;;;;;2.13;0.70;;;20.70;64.10;;;;;;6529161;43;110463;-76
2024/05/04 07:41:24;;;;;;;1.77;0.70;;;20.70;64.20;;;;;;6531179;43;111115;-72
2024/05/04 07:46:29;;;;;;;1.75;0.80;;;20.70;64.60;;;;;;6533468;43;110098;-71
2024/05/04 07:51:37;;;;;;;1.50;0.60;;;20.80;64.40;;;;;;6534349;43;111749;-72
2024/05/04 07:56:43;;;;;;;2.05;0.60;;;20.80;64.60;;;;;;6528607;43;116554;-72
2024/05/04 08:01:48;;;;;;;2.45;0.75;;;20.80;64.20;;;;;;6531393;43;114968;-71
2024/05/04 08:06:56;;;;;;;3.33;0.90;;;20.80;64.20;;;;;;6530436;43;113575;-70
2024/05/04 08:12:02;;;;;;;1.42;0.70;;;20.80;64.00;;;;;;6534000;43;114334;-72
2024/05/04 08:17:07;;;;;;;1.27;0.60;;;20.80;64.00;;;;;;6529732;43;115213;-72
2024/05/04 08:22:15;;;;;;;3.13;0.70;;;20.80;63.90;;;;;;6531155;43;114336;-70
2024/05/04 08:27:21;;;;;;;1.17;0.55;;;20.80;64.00;;;;;;6530039;43;115516;-70
2024/05/04 08:32:29;;;;;;;1.17;0.55;;;20.80;63.90;;;;;;6531899;43;115234;-71
2024/05/04 08:37:37;;;;;;;0.93;0.40;;;20.80;64.20;;;;;;6530301;43;110397;-70
2024/05/04 08:42:43;;;;;;;2.53;0.50;;;20.80;64.00;;;;;;6531761;43;110608;-70
2024/05/04 08:47:50;;;;;;;2.33;0.60;;;20.80;64.00;;;;;;6529775;43;111363;-73
2024/05/04 08:52:59;;;;;;;2.00;0.70;;;20.80;64.60;;;;;;6530781;43;110439;-72
2024/05/04 08:58:04;;;;;;;1.25;0.65;;;20.80;64.40;;;;;;6534015;43;110331;-69
2024/05/04 09:03:10;;;;;;;2.13;0.60;;;20.80;64.50;;;;;;6530667;43;110356;-69
2024/05/04 09:08:18;;;;;;;1.90;0.70;;;20.90;64.90;;;;;;6535923;43;112305;-70
2024/05/04 09:13:24;;;;;;;1.25;0.50;;;20.90;65.10;;;;;;6529419;43;111080;-73
2024/05/04 09:18:31;;;;;;;1.77;0.65;;;20.90;65.00;;;;;;6576648;43;112560;-71
2024/05/04 09:23:39;;;;;;;1.17;0.50;;;20.90;65.10;;;;;;6583437;43;110476;-69
2024/05/04 09:28:48;;;;;;;1.42;0.63;;;20.90;65.00;;;;;;6547258;43;110926;-74
2024/05/04 09:33:57;;;;;;;2.30;0.70;;;20.90;65.30;;;;;;6575371;43;113380;-70
2024/05/04 09:39:05;;;;;;;1.40;0.60;;;20.90;64.80;;;;;;6539493;43;110476;-76
2024/05/04 09:44:11;;;;;;;1.35;0.60;;;20.90;65.40;;;;;;6553833;43;115239;-73
2024/05/04 09:49:20;;;;;;;1.95;0.60;;;20.90;65.20;;;;;;6551315;43;114114;-75
2024/05/04 09:54:28;;;;;;;1.40;0.65;;;20.90;65.60;;;;;;6588475;43;117875;-74
2024/05/04 09:59:36;;;;;;;1.83;0.73;;;20.90;65.20;;;;;;6592551;43;115870;-71
2024/05/04 10:04:43;;;;;;;2.60;0.60;;;20.90;65.20;;;;;;6586825;43;116609;-71
2024/05/04 10:09:55;;;;;;;2.22;0.60;;;20.90;65.10;;;;;;6585113;43;115626;-70
2024/05/04 10:15:06;;;;;;;2.17;0.80;;;20.90;64.90;;;;;;6585023;43;114158;-72
2024/05/04 10:20:13;;;;;;;2.13;0.70;;;20.90;64.80;;;;;;6593062;43;117931;-74
2024/05/04 10:25:22;;;;;;;1.40;0.50;;;20.90;64.50;;;;;;6596164;43;116016;-71
2024/05/04 10:30:28;;;;;;;1.58;0.60;;;20.90;64.30;;;;;;6585610;43;110977;-73
2024/05/04 10:35:34;;;;;;;1.48;0.60;;;20.90;65.10;;;;;;6599934;43;110598;-76
2024/05/04 10:40:45;;;;;;;2.17;0.60;;;20.90;64.20;;;;;;6584279;43;110350;-76
2024/05/04 10:45:53;;;;;;;1.92;0.60;;;20.90;64.10;;;;;;6586634;43;110348;-78
2024/05/04 10:50:58;;;;;;;1.43;0.50;;;20.90;64.10;;;;;;6584449;43;111111;-77
2024/05/04 10:56:08;;;;;;;2.97;0.70;;;20.80;64.20;;;;;;6581308;43;110164;-80
2024/05/04 11:01:23;;;;;;;1.83;0.60;;;20.90;64.30;;;;;;6584512;43;110169;-77
2024/05/04 11:06:29;;;;;;;2.13;0.60;;;20.90;64.30;;;;;;6594939;43;112408;-79
2024/05/04 11:11:43;;;;;;;2.45;0.70;;;20.90;64.40;;;;;;6584092;43;110228;-79
2024/05/04 11:16:48;;;;;;;1.58;0.63;;;20.90;64.50;;;;;;6585740;43;111318;-79
2024/05/04 11:21:54;;;;;;;1.73;0.65;;;20.90;64.50;;;;;;6584538;43;110888;-72
2024/05/04 11:27:02;;;;;;;1.52;0.60;;;20.90;64.50;;;;;;6586562;43;110483;-72
2024/05/04 11:32:09;;;;;;;0.93;0.57;;;20.90;64.70;;;;;;6587707;43;114510;-78
2024/05/04 11:37:14;;;;;;;2.58;0.68;;;20.90;64.70;;;;;;6582719;43;113668;-72
2024/05/04 11:42:22;;;;;;;2.05;0.63;;;20.90;64.70;;;;;;6522411;43;114476;-71
2024/05/04 11:47:27;;;;;;;2.10;0.70;;;20.90;64.80;;;;;;6534174;43;115801;-73
2024/05/04 11:52:33;;;;;;;1.27;0.60;;;20.80;64.70;;;;;;6512528;43;114759;-77
2024/05/04 11:57:41;;;;;;;2.00;0.60;;;20.90;64.80;;;;;;6581470;43;116720;-77
2024/05/04 12:02:46;;;;;;;1.88;0.52;;;20.90;64.80;;;;;;6525152;43;114856;-80
2024/05/04 12:07:51;;;;;;;1.58;0.70;;;20.90;64.80;;;;;;6480142;44;114919;-78
2024/05/04 12:12:59;;;;;;;2.45;0.70;;;20.90;64.70;;;;;;6479626;43;114469;-81
2024/05/04 12:18:05;;;;;;;2.42;0.60;;;20.90;64.60;;;;;;6476903;43;110641;-80
2024/05/04 12:23:22;;;;;;;2.50;0.60;;;20.90;64.70;;;;;;6478407;44;111273;-78
2024/05/04 12:28:30;;;;;;;1.92;0.70;;;20.90;64.80;;;;;;6486356;43;112473;-77
2024/05/04 12:33:35;;;;;;;2.83;0.80;;;20.90;64.90;;;;;;6543978;43;112492;-79
2024/05/04 12:38:41;;;;;;;1.90;0.60;;;20.90;65.20;;;;;;6556011;43;110518;-78
2024/05/04 12:43:49;;;;;;;1.67;0.60;;;20.80;65.00;;;;;;6530159;43;110846;-78
2024/05/04 12:48:54;;;;;;;2.42;0.70;;;20.90;65.20;;;;;;6530519;43;110147;-78
2024/05/04 12:54:00;;;;;;;1.98;0.60;;;20.90;65.20;;;;;;6529659;43;111045;-80
2024/05/04 12:59:10;;;;;;;2.05;0.80;;;20.80;65.20;;;;;;6557305;43;110605;-81
2024/05/04 13:04:16;;;;;;;2.38;0.80;;;20.80;65.20;;;;;;6582494;43;110240;-79
2024/05/04 13:09:22;;;;;;;1.33;0.60;;;20.80;65.20;;;;;;6535029;43;111775;-80
2024/05/04 13:14:30;;;;;;;2.67;0.70;;;20.80;65.20;;;;;;6527964;43;110928;-78
2024/05/04 13:19:40;;;;;;;2.08;0.70;;;20.80;65.10;;;;;;6532904;43;110967;-77
2024/05/04 13:24:47;;;;;;;2.17;0.60;;;20.90;65.30;;;;;;6527030;43;113377;-78
2024/05/04 13:29:55;;;;;;;2.40;0.77;;;20.80;65.20;;;;;;6527239;43;113756;-76
2024/05/04 13:35:00;;;;;;;1.33;0.70;;;20.90;65.20;;;;;;6554763;43;116935;-76
2024/05/04 13:40:08;;;;;;;2.13;0.65;;;20.80;65.20;;;;;;6583179;43;114239;-78
2024/05/04 13:45:16;;;;;;;2.83;0.80;;;20.80;65.30;;;;;;6580784;43;116665;-79
2024/05/04 13:50:24;;;;;;;2.42;0.70;;;20.90;65.50;;;;;;6587321;43;115642;-77
2024/05/04 13:55:32;;;;;;;3.28;0.82;;;20.80;65.40;;;;;;6582598;43;115036;-81
2024/05/04 14:00:40;;;;;;;3.67;1.15;;;20.80;65.40;;;;;;6587660;43;116078;-80
2024/05/04 14:05:45;;;;;;;3.05;0.82;;;20.80;65.50;;;;;;6588071;43;111967;-79
2024/05/04 14:10:51;;;;;;;2.47;0.73;;;20.80;65.50;;;;;;6583790;43;110341;-80
2024/05/04 14:15:59;;;;;;;2.97;0.77;;;20.80;65.50;;;;;;6583160;43;110269;-72
2024/05/04 14:21:04;;;;;;;3.88;0.77;;;20.80;65.60;;;;;;6581606;43;111168;-75
2024/05/04 14:26:09;;;;;;;3.78;0.80;;;20.80;65.70;;;;;;6582000;43;112460;-75
2024/05/04 14:31:17;;;;;;;1.98;0.80;;;20.80;65.90;;;;;;6529289;43;110498;-81
2024/05/04 14:36:23;;;;;;;3.85;0.80;;;20.80;65.90;;;;;;6528457;43;110529;-79
2024/05/04 14:41:28;;;;;;;2.78;0.85;;;20.80;66.00;;;;;;6529174;43;111128;-78
2024/05/04 14:46:36;;;;;;;2.20;0.70;;;20.80;66.20;;;;;;6531950;43;111080;-72
2024/05/04 14:51:41;;;;;;;2.85;0.80;;;20.80;66.30;;;;;;6529521;43;110673;-76
2024/05/04 14:56:46;;;;;;;1.83;0.63;;;20.80;66.30;;;;;;6538266;43;113039;-73
2024/05/04 15:01:57;;;;;;;;;;;20.80;66.30;;;;;;6531046;43;111088;-72
2024/05/04 15:07:02;;;;;;;;;;;20.80;66.40;;;;;;6532465;43;110839;-78
2024/05/04 15:12:08;;;;;;;4.32;0.77;;;20.80;66.50;;;;;;6540494;43;115631;-73
2024/05/04 15:17:17;;;;;;;3.42;0.73;;;20.80;66.50;;;;;;6513387;43;114153;-77
2024/05/04 15:22:22;;;;;;;3.33;0.70;;;20.70;66.50;;;;;;6532763;43;113431;-75
2024/05/04 15:27:28;;;;;;;2.85;0.80;;;20.70;66.50;;;;;;6531451;43;113506;-73
2024/05/04 15:32:39;;;;;;;2.75;0.70;;;20.70;66.40;;;;;;6529378;43;116123;-76
2024/05/04 15:37:44;;;;;;;1.50;0.60;;;20.70;66.50;;;;;;6536717;43;116180;-77
2024/05/04 15:42:50;;;;;;;3.25;0.80;;;20.70;66.50;;;;;;6529785;43;115304;-72
2024/05/04 15:47:58;;;;;;;3.40;0.80;;;20.70;66.60;;;;;;6528755;43;115068;-73
2024/05/04 15:53:03;;;;;;;1.77;0.73;;;20.70;66.60;;;;;;6529680;43;115396;-74
2024/05/04 15:58:08;;;;;;;4.93;0.80;;;20.70;66.70;;;;;;6528738;43;111075;-81
2024/05/04 16:03:16;;;;;;;2.85;0.80;;;20.70;66.70;;;;;;6549290;43;110726;-80
2024/05/04 16:08:21;;;;;;;2.53;0.80;;;20.70;66.60;;;;;;6565517;43;112312;-76
2024/05/04 16:13:27;;;;;;;2.75;0.88;;;20.70;66.70;;;;;;6525207;43;110197;-77
2024/05/04 16:18:36;;;;;;;3.42;0.93;;;20.70;66.70;;;;;;6539731;43;113052;-74
2024/05/04 16:23:41;;;;;;;4.32;1.00;;;20.70;66.70;;;;;;6532608;43;110289;-78
2024/05/04 16:28:46;;;;;;;2.40;0.80;;;20.70;66.70;;;;;;6530083;43;110419;-77
2024/05/04 16:33:54;;;;;;;2.00;0.70;;;20.70;66.80;;;;;;6541802;43;112770;-76
2024/05/04 16:38:59;;;;;;;2.10;0.80;;;20.70;66.80;;;;;;6531833;43;111452;-78
2024/05/04 16:44:04;;;;;;;3.03;0.82;;;20.70;67.50;;;;;;6540595;43;112564;-74
2024/05/04 16:49:14;;;;;;;2.35;0.85;;;20.70;66.90;;;;;;6479052;43;110444;-79
2024/05/04 16:54:20;;;;;;;2.75;0.82;;;20.70;66.90;;;;;;6479439;43;110344;-80
2024/05/04 16:59:26;;;;;;;3.58;0.90;;;20.70;67.00;;;;;;6480869;43;114429;-80
2024/05/04 17:04:41;;;;;;;3.05;1.30;;;20.70;67.80;;;;;;6480444;43;112511;-80
2024/05/04 17:09:47;;;;;;;4.45;1.40;;;20.70;66.90;;;;;;6478240;43;113527;-80
2024/05/04 17:14:52;;;;;;;4.00;1.50;;;20.60;67.00;;;;;;6503211;43;115988;-81
2024/05/04 17:20:02;;;;;;;3.60;1.40;;;20.60;66.90;;;;;;6497015;43;114534;-78
2024/05/04 17:25:08;;;;;;;4.10;1.48;;;20.70;67.00;;;;;;6497687;43;113417;-75
2024/05/04 17:30:13;;;;;;;3.60;1.40;;;20.70;67.10;;;;;;6477404;44;114414;-80
2024/05/04 17:35:21;;;;;;;4.32;1.60;;;20.60;67.10;;;;;;6487457;43;117170;-75
2024/05/04 17:40:26;;;;;;;3.88;1.40;;;20.60;67.00;;;;;;6482673;43;116247;-75
2024/05/04 17:45:32;;;;;;;3.45;1.50;;;20.60;67.00;;;;;;6477251;43;110541;-77
2024/05/04 17:50:40;;;;;;;4.05;1.48;;;20.60;67.10;;;;;;6476201;44;110989;-74
2024/05/04 17:55:45;;;;;;;3.22;1.40;;;20.60;67.20;;;;;;6485486;43;112954;-76
2024/05/04 18:00:51;;;;;;;3.65;1.60;;;20.60;67.10;;;;;;6478053;43;110791;-78
2024/05/04 18:05:59;;;;;;;3.90;1.50;;;20.60;67.20;;;;;;6484023;44;112761;-75
2024/05/04 18:11:05;;;;;;;3.67;1.30;;;20.60;67.20;;;;;;6480901;43;113380;-81
2024/05/04 18:16:10;;;;;;;3.88;1.30;;;20.60;67.20;;;;;;6475715;43;110951;-77
2024/05/04 18:21:18;;;;;;;3.30;1.23;;;20.60;67.20;;;;;;6478126;43;110662;-78
2024/05/04 18:26:23;;;;;;;;;;;20.60;67.20;;;;;;6483175;43;112859;-79
2024/05/04 18:31:32;;;;;;;3.20;1.25;;;20.60;67.20;;;;;;6476223;43;110269;-74
2024/05/04 18:36:40;;;;;;;2.75;1.10;;;20.60;67.30;;;;;;6482922;43;112653;-72
2024/05/04 18:41:46;;;;;;;2.65;0.98;;;20.60;67.30;;;;;;6476416;44;110421;-75
2024/05/04 18:46:53;;;;;;;2.80;1.10;;;20.60;67.30;;;;;;6481513;43;110704;-73
2024/05/04 18:52:01;;;;;;;3.20;1.10;;;20.60;67.30;;;;;;6480478;43;114315;-74
2024/05/04 18:57:08;;;;;;;2.85;1.10;;;20.50;67.00;;;;;;6495535;43;113914;-74
2024/05/04 19:02:13;;;;;;;2.58;1.00;;;20.50;66.90;;;;;;6478348;43;115362;-80
2024/05/04 19:07:21;;;;;;;3.00;1.05;;;20.50;66.80;;;;;;6478811;43;114551;-81
2024/05/04 19:12:26;;;;;;;3.50;0.98;;;20.50;66.80;;;;;;6477325;43;114149;-80
2024/05/04 19:17:31;;;;;;;3.28;0.93;;;20.50;66.80;;;;;;6477521;43;115070;-81
2024/05/04 19:22:39;;;;;;;2.67;0.88;;;20.50;66.90;;;;;;6570073;43;116017;-81
2024/05/04 19:27:44;;;;;;;2.50;0.98;;;20.50;66.90;;;;;;6587924;43;119083;-80
2024/05/04 19:32:50;;;;;;;3.45;1.00;;;20.50;66.80;;;;;;6581957;43;110690;-79
2024/05/04 19:37:58;;;;;;;2.00;0.90;;;20.50;66.90;;;;;;6582362;43;110514;-80
2024/05/04 19:43:06;;;;;;;2.60;0.90;;;20.50;66.90;;;;;;6591678;43;113036;-80
2024/05/04 19:48:11;;;;;;;2.67;0.90;;;20.50;67.00;;;;;;6581755;43;110869;-81
2024/05/04 19:53:19;;;;;;;3.00;1.00;;;20.40;66.90;;;;;;6585104;43;110353;-80
2024/05/04 19:58:24;;;;;;;2.53;1.00;;;20.40;67.00;;;;;;6582651;43;110269;-78
2024/05/04 20:03:29;;;;;;;1.85;0.80;;;20.50;67.10;;;;;;6589781;43;111740;-76
2024/05/04 20:08:37;;;;;;;2.45;0.85;;;20.40;67.00;;;;;;6582987;43;110643;-79
2024/05/04 20:13:45;;;;;;;2.55;0.90;;;20.50;67.10;;;;;;6594949;43;110225;-78
2024/05/04 20:18:51;;;;;;;2.25;1.00;;;20.50;67.10;;;;;;6590927;43;112748;-77
2024/05/04 20:23:59;;;;;;;2.50;1.00;;;20.40;67.10;;;;;;6586857;43;111626;-80
2024/05/04 20:29:04;;;;;;;2.00;0.88;;;20.40;67.10;;;;;;6590408;43;110134;-81
2024/05/04 20:34:21;;;;;;;2.50;0.90;;;20.40;67.10;;;;;;6595574;43;111036;-77
2024/05/04 20:39:30;;;;;;;2.22;1.05;;;20.40;67.20;;;;;;6594578;43;117580;-73
2024/05/04 20:44:36;;;;;;;2.33;0.85;;;20.40;67.10;;;;;;6582225;43;113333;-79
2024/05/04 20:49:41;;;;;;;2.20;0.90;;;20.40;67.10;;;;;;6581885;43;112894;-76
2024/05/04 20:54:49;;;;;;;2.50;1.00;;;20.40;67.10;;;;;;6585839;43;114531;-78
2024/05/04 20:59:54;;;;;;;3.40;1.00;;;20.40;67.10;;;;;;6582461;43;115171;-75
2024/05/04 21:05:00;;;;;;;2.33;0.90;;;20.40;67.10;;;;;;6488165;43;117311;-81
2024/05/04 21:10:09;;;;;;;2.75;1.00;;;20.40;67.00;;;;;;6477720;44;114329;-79
2024/05/04 21:15:14;;;;;;;2.53;1.00;;;20.40;67.00;;;;;;6478246;44;115269;-80
2024/05/04 21:20:19;;;;;;;3.22;0.90;;;20.40;67.00;;;;;;6488917;44;118349;-78
2024/05/04 21:25:29;;;;;;;3.60;1.10;;;20.40;66.90;;;;;;6476903;44;110569;-80
2024/05/04 21:30:34;;;;;;;2.15;1.00;;;20.40;67.00;;;;;;6477097;43;110449;-80
2024/05/04 21:35:40;;;;;;;2.42;0.90;;;20.40;66.90;;;;;;6516043;43;110987;-79
2024/05/04 21:40:48;;;;;;;3.00;1.00;;;20.40;66.80;;;;;;6528834;43;111032;-80
2024/05/04 21:45:53;;;;;;;;;;;20.40;66.90;;;;;;6527858;43;110621;-77
2024/05/04 21:50:59;;;;;;;3.10;1.10;;;20.40;66.80;;;;;;6527395;43;110217;-79
2024/05/04 21:56:08;;;;;;;2.13;1.08;;;20.40;66.80;;;;;;6527304;43;110159;-75
2024/05/04 22:01:13;;;;;;;3.50;1.25;;;20.40;66.90;;;;;;6529019;43;110503;-79
2024/05/04 22:06:19;;;;;;;3.30;1.30;;;20.30;67.60;;;;;;6527820;43;110315;-78
2024/05/04 22:11:28;;;;;;;4.38;1.70;;;20.30;66.90;;;;;;6528380;43;110667;-77
2024/05/04 22:16:33;;;;;;;4.30;1.90;;;20.30;66.70;;;;;;6529083;43;110852;-80
2024/05/04 22:21:39;;;;;;;3.95;1.58;;;20.30;66.70;;;;;;6532713;43;110249;-79
2024/05/04 22:26:52;;;;;;;3.13;1.58;;;20.30;66.80;;;;;;6538182;43;116824;-81
2024/05/04 22:31:57;;;;;;;;;;;20.30;66.70;;;;;;6537386;43;114041;-79
2024/05/04 22:37:02;;;;;;;3.78;1.70;;;20.30;66.70;;;;;;6532421;43;117553;-79
2024/05/04 22:42:11;;;;;;;3.97;1.73;;;20.30;66.80;;;;;;6530779;43;114332;-79
2024/05/04 22:47:16;;;;;;;4.15;2.00;;;20.30;66.70;;;;;;6533410;43;113108;-80
2024/05/04 22:52:21;;;;;;;3.20;1.70;;;20.30;66.60;;;;;;6531488;43;115145;-78
2024/05/04 22:57:29;;;;;;;3.58;1.73;;;20.20;66.60;;;;;;6530963;43;115010;-73
2024/05/04 23:02:34;;;;;;;;;;;20.30;66.50;;;;;;6531915;43;115436;-73
2024/05/04 23:07:39;;;;;;;3.50;1.70;;;20.30;66.50;;;;;;6531973;43;115435;-72
2024/05/04 23:12:48;;;;;;;4.22;1.90;;;20.30;66.60;;;;;;6536106;43;112492;-76
2024/05/04 23:17:53;;;;;;;4.18;1.90;;;20.30;66.50;;;;;;6538368;43;112512;-71
2024/05/04 23:22:59;;;;;;;3.45;1.60;;;20.30;66.40;;;;;;6531244;43;110813;-77
2024/05/04 23:28:08;;;;;;;3.85;1.80;;;20.30;66.40;;;;;;6532894;43;110234;-74
2024/05/04 23:33:13;;;;;;;3.22;1.70;;;20.20;67.10;;;;;;6531074;43;110564;-75
2024/05/04 23:38:18;;;;;;;3.25;1.70;;;20.30;66.30;;;;;;6538545;43;112198;-75
2024/05/04 23:43:28;;;;;;;3.90;1.65;;;20.20;66.30;;;;;;6533058;43;110289;-73
2024/05/04 23:48:33;;;;;;;3.60;1.67;;;20.20;66.20;;;;;;6533243;43;111067;-77
2024/05/04 23:53:38;;;;;;;2.88;1.30;;;20.20;66.20;;;;;;6540184;43;112839;-75
2024/05/04 23:58:46;;;;;;;3.28;1.42;;;20.20;66.20;;;;;;6530439;43;110739;-71
